Time;durP1;ratioP1;P1;durP2;ratioP2;P2;SDS_P1;SDS_P2;PMS_P1;PMS_P2;Temp;Humidity;BMP_temperature;BMP_pressure;BME280_temperature;BME280_humidity;BME280_pressure;Samples;Min_cycle;Max_cycle;Signal;HPM_P1;HPM_P2
2024/01/03 00:00:23;;;;;;;3.03;0.82;;;13.70;99.90;;;;;;5077874;28;20184;-69
2024/01/03 00:02:49;;;;;;;3.08;0.90;;;13.60;99.90;;;;;;5096657;28;20268;-69
2024/01/03 00:05:24;;;;;;;4.70;1.23;;;13.60;99.90;;;;;;5077826;28;20226;-70
2024/01/03 00:07:50;;;;;;;3.83;1.23;;;13.60;99.90;;;;;;5078548;28;20172;-69
2024/01/03 00:10:38;;;;;;;3.95;0.95;;;13.60;99.90;;;;;;5085283;28;20204;-69
2024/01/03 00:13:26;;;;;;;3.70;1.05;;;13.60;99.90;;;;;;5082579;28;20207;-69
2024/01/03 00:16:01;;;;;;;3.35;0.73;;;13.60;99.90;;;;;;5081525;28;20179;-69
2024/01/03 00:18:37;;;;;;;2.58;0.90;;;13.60;99.90;;;;;;5075640;28;20203;-69
2024/01/03 00:21:03;;;;;;;2.83;1.00;;;13.50;99.90;;;;;;5060803;28;20183;-70
2024/01/03 00:23:35;;;;;;;3.60;0.82;;;13.50;99.90;;;;;;5071749;28;20202;-70
2024/01/03 00:26:01;;;;;;;3.00;0.80;;;13.50;99.90;;;;;;5090678;28;20168;-69
2024/01/03 00:28:26;;;;;;;3.17;0.90;;;13.60;99.90;;;;;;5099137;28;20181;-70
2024/01/03 00:30:54;;;;;;;3.45;0.98;;;13.60;99.90;;;;;;5086715;28;20186;-70
2024/01/03 00:33:20;;;;;;;3.03;0.88;;;13.50;99.90;;;;;;5080475;28;20267;-69
2024/01/03 00:35:48;;;;;;;2.17;0.60;;;13.50;99.90;;;;;;5072968;28;20287;-70
2024/01/03 00:38:14;;;;;;;2.40;0.70;;;13.50;99.90;;;;;;5060354;28;20193;-70
2024/01/03 00:40:48;;;;;;;2.45;0.70;;;13.50;99.90;;;;;;5080258;28;20221;-71
2024/01/03 00:43:16;;;;;;;2.75;0.73;;;13.50;99.90;;;;;;5075539;28;20200;-70
2024/01/03 00:45:45;;;;;;;1.20;0.60;;;13.50;99.90;;;;;;5075130;28;20191;-70
2024/01/03 00:48:11;;;;;;;2.63;0.63;;;13.50;99.90;;;;;;5079338;28;20180;-70
2024/01/03 00:50:38;;;;;;;1.58;0.50;;;13.40;99.90;;;;;;5080222;28;20183;-69
2024/01/03 00:53:07;;;;;;;1.85;0.60;;;13.40;99.90;;;;;;5084244;28;20179;-69
2024/01/03 00:55:34;;;;;;;1.55;0.60;;;13.30;99.90;;;;;;5082173;28;20247;-69
2024/01/03 00:58:02;;;;;;;1.90;0.60;;;13.30;99.90;;;;;;5085316;28;20331;-69
2024/01/03 01:00:32;;;;;;;1.73;0.55;;;13.30;99.90;;;;;;5084054;28;20183;-69
2024/01/03 01:02:59;;;;;;;2.13;0.70;;;13.30;99.90;;;;;;5077793;28;20188;-69
2024/01/03 01:05:26;;;;;;;2.45;0.60;;;13.20;99.90;;;;;;5083193;28;20179;-69
2024/01/03 01:07:52;;;;;;;1.90;0.70;;;13.20;99.90;;;;;;5078571;28;20202;-69
2024/01/03 01:10:18;;;;;;;3.75;0.88;;;13.10;99.90;;;;;;5079825;28;20191;-68
2024/01/03 01:12:45;;;;;;;2.47;0.63;;;13.10;99.90;;;;;;5076029;28;20176;-70
2024/01/03 01:15:13;;;;;;;2.22;0.68;;;13.00;99.90;;;;;;5071817;28;20200;-69
2024/01/03 01:17:39;;;;;;;1.38;0.50;;;13.00;99.90;;;;;;5081159;22;20286;-69
2024/01/03 01:20:08;;;;;;;2.80;0.50;;;13.00;99.90;;;;;;5046182;28;20174;-69
2024/01/03 01:22:33;;;;;;;1.90;0.60;;;12.90;99.90;;;;;;5039179;28;20177;-69
2024/01/03 01:25:01;;;;;;;1.67;0.47;;;12.90;99.90;;;;;;5028613;28;20204;-68
2024/01/03 01:27:27;;;;;;;1.30;0.47;;;12.90;99.90;;;;;;5027487;28;20208;-69
2024/01/03 01:29:54;;;;;;;1.95;0.70;;;12.90;99.90;;;;;;5040413;28;20185;-68
2024/01/03 01:32:20;;;;;;;0.70;0.30;;;12.90;99.90;;;;;;5038140;28;20264;-68
2024/01/03 01:35:04;;;;;;;1.45;0.52;;;12.80;99.90;;;;;;5035550;28;20438;-71
2024/01/03 01:37:29;;;;;;;2.30;0.60;;;12.90;99.90;;;;;;5047041;28;20205;-68
2024/01/03 01:39:55;;;;;;;1.75;0.40;;;12.90;99.90;;;;;;5041501;28;20170;-69
2024/01/03 01:42:22;;;;;;;0.85;0.40;;;12.80;99.90;;;;;;5037459;28;20215;-68
2024/01/03 01:44:50;;;;;;;2.88;0.73;;;12.80;99.90;;;;;;5038407;28;20207;-67
2024/01/03 01:47:18;;;;;;;2.45;0.60;;;12.70;99.90;;;;;;5038394;28;20197;-70
2024/01/03 01:49:44;;;;;;;2.97;0.70;;;12.60;99.90;;;;;;5036168;28;20189;-69
2024/01/03 01:52:14;;;;;;;3.47;0.75;;;12.50;99.90;;;;;;5036801;28;20185;-68
2024/01/03 01:54:40;;;;;;;3.45;0.90;;;12.50;99.90;;;;;;5037223;28;20185;-67
2024/01/03 01:57:06;;;;;;;1.80;0.70;;;12.40;99.90;;;;;;5033138;28;20240;-70
2024/01/03 01:59:34;;;;;;;3.72;0.80;;;12.40;99.90;;;;;;5055051;28;20229;-70
2024/01/03 02:02:00;;;;;;;2.67;0.95;;;12.30;99.90;;;;;;5034735;28;20303;-70
2024/01/03 02:04:30;;;;;;;6.20;1.15;;;12.30;99.90;;;;;;5036468;28;20256;-70
2024/01/03 02:06:55;;;;;;;2.50;0.90;;;12.20;99.90;;;;;;5036212;28;20265;-69
2024/01/03 02:09:21;;;;;;;2.92;1.10;;;12.20;99.90;;;;;;5051037;28;20414;-69
2024/01/03 02:11:47;;;;;;;3.65;0.90;;;12.10;99.90;;;;;;5036424;28;20412;-69
2024/01/03 02:14:13;;;;;;;3.00;0.90;;;12.10;99.90;;;;;;5036732;28;20296;-70
2024/01/03 02:16:41;;;;;;;3.85;0.95;;;12.10;99.90;;;;;;5035653;28;20307;-70
2024/01/03 02:22:26;;;;;;;3.90;0.80;;;12.10;99.90;;;;;;5051489;28;20166;-71
2024/01/03 02:24:52;;;;;;;2.83;1.10;;;12.10;99.90;;;;;;5035219;28;20166;-69
2024/01/03 02:27:19;;;;;;;4.63;1.00;;;12.10;99.90;;;;;;5036721;28;20188;-69
2024/01/03 02:29:45;;;;;;;5.00;0.93;;;12.10;99.90;;;;;;5033333;28;20232;-68
2024/01/03 02:32:11;;;;;;;3.67;0.85;;;12.10;99.90;;;;;;5036273;28;20197;-69
2024/01/03 02:34:38;;;;;;;3.03;0.80;;;12.10;99.90;;;;;;5036948;28;20215;-69
2024/01/03 02:37:07;;;;;;;2.72;1.13;;;12.10;99.90;;;;;;5029756;28;20201;-70
2024/01/03 02:39:33;;;;;;;2.88;1.05;;;12.00;99.90;;;;;;5048644;28;20275;-69
2024/01/03 02:41:59;;;;;;;3.45;0.68;;;12.10;99.90;;;;;;5037215;28;20177;-70
2024/01/03 02:44:27;;;;;;;2.58;0.82;;;12.10;99.90;;;;;;5036436;28;20181;-70
2024/01/03 02:46:54;;;;;;;2.00;0.82;;;12.20;99.90;;;;;;5033442;28;20178;-68
2024/01/03 02:49:20;;;;;;;4.15;1.17;;;12.20;99.90;;;;;;5035048;28;20189;-69
2024/01/03 02:51:45;;;;;;;2.75;0.80;;;12.20;99.90;;;;;;5033059;28;20182;-71
2024/01/03 02:54:11;;;;;;;2.60;0.85;;;12.20;99.90;;;;;;5034141;28;20453;-68
2024/01/03 02:56:55;;;;;;;2.60;0.65;;;12.20;99.90;;;;;;5036538;28;20280;-69
2024/01/03 02:59:20;;;;;;;2.22;0.70;;;12.10;99.90;;;;;;5034520;28;20201;-69
2024/01/03 03:01:46;;;;;;;4.20;1.00;;;12.00;99.90;;;;;;5034724;28;20165;-71
2024/01/03 03:04:12;;;;;;;1.65;0.70;;;12.00;99.90;;;;;;5035944;28;20239;-71
2024/01/03 03:06:43;;;;;;;2.13;0.63;;;11.90;99.90;;;;;;5034952;28;20264;-72
2024/01/03 03:09:12;;;;;;;1.35;0.57;;;11.80;99.90;;;;;;5050108;28;20226;-71
2024/01/03 03:11:37;;;;;;;2.05;0.70;;;11.70;99.90;;;;;;5033903;28;20197;-71
2024/01/03 03:14:05;;;;;;;1.55;0.52;;;11.70;99.90;;;;;;5035499;28;20165;-70
2024/01/03 03:16:33;;;;;;;1.98;0.60;;;11.60;99.90;;;;;;5033667;28;20192;-71
2024/01/03 03:18:59;;;;;;;3.25;0.80;;;11.60;99.90;;;;;;5035495;28;20286;-72
2024/01/03 03:21:24;;;;;;;2.33;0.77;;;11.50;99.90;;;;;;5036603;28;20212;-70
2024/01/03 03:23:50;;;;;;;4.07;1.02;;;11.50;99.90;;;;;;5035790;28;20169;-69
2024/01/03 03:26:15;;;;;;;3.05;0.88;;;11.40;99.90;;;;;;5030012;28;20181;-70
2024/01/03 03:28:41;;;;;;;3.42;0.80;;;11.40;99.90;;;;;;5035222;28;20192;-72
2024/01/03 03:31:17;;;;;;;2.92;0.70;;;11.30;99.90;;;;;;5034969;28;20200;-68
2024/01/03 03:33:42;;;;;;;2.35;0.63;;;11.30;99.90;;;;;;5034300;28;20282;-69
2024/01/03 03:36:12;;;;;;;2.85;0.80;;;11.30;99.90;;;;;;5036196;28;20217;-69
2024/01/03 03:38:38;;;;;;;1.95;0.65;;;11.30;99.90;;;;;;5036067;28;20201;-70
2024/01/03 03:41:11;;;;;;;2.67;0.90;;;11.30;99.90;;;;;;5035169;28;20180;-71
2024/01/03 03:43:39;;;;;;;2.83;1.08;;;11.30;99.90;;;;;;5049835;28;20865;-67
2024/01/03 03:46:08;;;;;;;4.35;1.00;;;11.30;99.90;;;;;;5035072;28;20192;-69
2024/01/03 03:48:34;;;;;;;3.78;0.60;;;11.30;99.90;;;;;;5036510;28;20209;-68
2024/01/03 03:51:03;;;;;;;2.38;0.68;;;11.40;99.90;;;;;;5033011;28;20292;-67
2024/01/03 03:53:31;;;;;;;5.57;1.10;;;11.40;99.90;;;;;;5033851;28;20211;-67
2024/01/03 03:55:57;;;;;;;4.18;0.75;;;11.40;99.90;;;;;;5048744;28;20217;-70
2024/01/03 03:58:24;;;;;;;3.50;1.10;;;11.50;99.90;;;;;;5035921;28;20229;-69
2024/01/03 04:00:50;;;;;;;3.95;1.00;;;11.50;99.90;;;;;;5034367;28;20177;-70
2024/01/03 04:03:16;;;;;;;2.97;0.82;;;11.50;99.90;;;;;;5034374;28;20173;-70
2024/01/03 04:05:44;;;;;;;3.10;0.90;;;11.60;99.90;;;;;;5035001;28;20178;-70
2024/01/03 04:08:09;;;;;;;1.70;0.70;;;11.70;99.90;;;;;;5036514;28;20182;-69
2024/01/03 04:10:37;;;;;;;3.22;0.85;;;11.70;99.90;;;;;;5038432;28;20254;-70
2024/01/03 04:13:03;;;;;;;4.90;0.98;;;11.80;99.90;;;;;;5049970;28;20182;-69
2024/01/03 04:15:29;;;;;;;3.40;0.85;;;11.80;99.90;;;;;;5048813;28;20203;-68
2024/01/03 04:17:55;;;;;;;5.00;0.80;;;11.90;99.90;;;;;;5034488;28;20201;-69
2024/01/03 04:20:21;;;;;;;4.03;1.05;;;11.90;99.90;;;;;;5034653;28;20173;-70
2024/01/03 04:22:49;;;;;;;2.58;0.90;;;11.90;99.90;;;;;;5037459;28;20185;-71
2024/01/03 04:25:20;;;;;;;3.60;1.00;;;11.90;99.90;;;;;;5032314;28;20232;-70
2024/01/03 04:27:48;;;;;;;2.08;0.80;;;11.90;99.90;;;;;;5033926;28;20181;-70
2024/01/03 04:30:14;;;;;;;3.20;1.10;;;11.90;99.90;;;;;;5036658;28;20201;-68
2024/01/03 04:32:42;;;;;;;3.58;1.10;;;11.90;99.90;;;;;;5037339;28;20189;-67
2024/01/03 04:35:08;;;;;;;2.97;0.90;;;11.90;99.90;;;;;;5037160;28;20254;-69
2024/01/03 04:37:36;;;;;;;4.15;1.10;;;11.90;99.90;;;;;;5036769;28;20212;-70
2024/01/03 04:40:02;;;;;;;4.57;1.10;;;11.90;99.90;;;;;;5033844;28;20302;-70
2024/01/03 04:42:28;;;;;;;3.13;1.08;;;11.90;99.90;;;;;;5035723;28;20186;-69
2024/01/03 04:44:53;;;;;;;2.95;1.00;;;11.90;99.90;;;;;;5035352;28;20193;-69
2024/01/03 04:47:19;;;;;;;5.65;1.15;;;11.90;99.90;;;;;;5039658;28;20227;-69
2024/01/03 04:49:44;;;;;;;5.85;1.15;;;11.90;99.90;;;;;;5038038;28;20227;-70
2024/01/03 04:52:12;;;;;;;3.83;0.90;;;11.90;99.90;;;;;;5038395;28;20186;-69
2024/01/03 04:54:40;;;;;;;4.28;1.25;;;12.00;99.90;;;;;;5035917;28;20269;-70
2024/01/03 04:57:06;;;;;;;2.30;0.90;;;12.00;99.90;;;;;;5035807;28;20229;-70
2024/01/03 04:59:31;;;;;;;4.05;1.10;;;12.00;99.90;;;;;;5036620;28;20207;-69
2024/01/03 05:01:57;;;;;;;1.73;0.60;;;12.00;99.90;;;;;;5038319;28;20275;-69
2024/01/03 05:04:25;;;;;;;1.70;0.60;;;12.00;99.90;;;;;;5031903;28;20197;-70
2024/01/03 05:06:53;;;;;;;2.63;1.17;;;12.10;99.90;;;;;;5039111;28;20180;-70
2024/01/03 05:09:21;;;;;;;2.42;0.80;;;12.10;99.90;;;;;;5040038;28;20236;-69
2024/01/03 05:11:47;;;;;;;2.15;0.68;;;12.10;99.90;;;;;;5037640;28;20177;-69
2024/01/03 05:14:12;;;;;;;0.93;0.40;;;12.10;99.90;;;;;;5046343;28;20301;-63
2024/01/03 05:16:41;;;;;;;1.45;0.63;;;12.10;99.90;;;;;;5055223;28;20264;-64
2024/01/03 05:19:06;;;;;;;1.83;0.70;;;12.10;99.90;;;;;;5045940;28;20304;-64
2024/01/03 05:21:34;;;;;;;1.50;0.60;;;12.10;99.90;;;;;;5036506;28;20257;-63
2024/01/03 05:24:00;;;;;;;1.67;0.77;;;12.10;99.90;;;;;;5036531;28;20196;-63
2024/01/03 05:26:27;;;;;;;2.67;0.80;;;12.10;99.90;;;;;;5029901;28;20384;-63
2024/01/03 05:28:53;;;;;;;1.85;0.73;;;12.10;99.90;;;;;;5052488;28;20424;-63
2024/01/03 05:31:21;;;;;;;1.08;0.50;;;12.10;99.90;;;;;;5037819;28;20214;-63
2024/01/03 05:33:49;;;;;;;1.63;0.73;;;12.10;99.90;;;;;;5037609;28;20252;-63
2024/01/03 05:36:17;;;;;;;2.50;0.63;;;12.00;99.90;;;;;;5034204;28;20193;-63
2024/01/03 05:38:44;;;;;;;3.05;0.70;;;12.00;99.90;;;;;;5035188;28;20220;-63
2024/01/03 05:41:11;;;;;;;3.50;1.00;;;12.00;99.90;;;;;;5039266;28;20173;-64
2024/01/03 05:43:39;;;;;;;5.28;1.08;;;12.00;99.90;;;;;;5036995;28;20169;-63
2024/01/03 05:46:05;;;;;;;2.58;0.80;;;12.00;99.90;;;;;;5038406;28;20176;-63
2024/01/03 05:48:33;;;;;;;4.47;1.30;;;12.00;99.90;;;;;;5037064;28;20197;-63
2024/01/03 05:50:59;;;;;;;4.60;1.17;;;11.90;99.90;;;;;;5033658;28;20315;-63
2024/01/03 05:53:26;;;;;;;3.25;0.98;;;12.00;99.90;;;;;;5036117;28;20239;-63
2024/01/03 05:55:52;;;;;;;3.95;1.10;;;11.90;99.90;;;;;;5032946;28;20185;-65
2024/01/03 05:58:18;;;;;;;4.72;1.10;;;12.00;99.90;;;;;;5037189;28;20185;-64
2024/01/03 06:00:43;;;;;;;2.92;1.13;;;12.00;99.90;;;;;;5033964;28;20178;-63
2024/01/03 06:03:11;;;;;;;4.38;1.30;;;12.00;99.90;;;;;;5036774;28;20271;-63
2024/01/03 06:05:37;;;;;;;5.63;2.28;;;12.10;99.90;;;;;;5036125;28;20169;-63
2024/01/03 06:08:04;;;;;;;4.80;1.48;;;12.10;99.90;;;;;;5038557;28;20224;-63
2024/01/03 06:10:29;;;;;;;9.07;1.50;;;12.10;99.90;;;;;;5053094;28;20204;-63
2024/01/03 06:12:55;;;;;;;5.85;1.50;;;12.20;99.90;;;;;;5037160;28;20185;-63
2024/01/03 06:15:23;;;;;;;5.45;1.30;;;12.20;99.90;;;;;;5037242;28;20237;-64
2024/01/03 06:17:53;;;;;;;5.25;1.50;;;12.20;99.90;;;;;;5031966;28;20201;-63
2024/01/03 06:20:21;;;;;;;6.20;1.60;;;12.30;99.90;;;;;;5028356;28;20368;-63
2024/01/03 06:22:49;;;;;;;6.00;1.60;;;12.20;99.90;;;;;;5038064;28;20269;-63
2024/01/03 06:25:15;;;;;;;5.50;1.83;;;12.30;99.90;;;;;;5031817;28;20182;-63
2024/01/03 06:27:40;;;;;;;4.72;1.52;;;12.30;99.90;;;;;;5032197;28;20208;-63
2024/01/03 06:30:06;;;;;;;5.35;1.27;;;12.30;99.90;;;;;;5036508;28;20274;-63
2024/01/03 06:32:32;;;;;;;6.70;1.42;;;12.30;99.90;;;;;;5034368;28;20192;-64
2024/01/03 06:34:58;;;;;;;5.25;1.48;;;12.30;99.90;;;;;;5040578;28;20165;-64
2024/01/03 06:37:26;;;;;;;6.57;1.60;;;12.30;99.90;;;;;;5033842;28;20200;-63
2024/01/03 06:39:51;;;;;;;6.30;1.48;;;12.30;99.90;;;;;;5024252;28;20264;-62
2024/01/03 06:42:19;;;;;;;8.75;1.63;;;12.30;99.90;;;;;;5036609;28;20173;-63
2024/01/03 06:44:47;;;;;;;4.18;1.63;;;12.30;99.90;;;;;;5029716;28;20181;-63
2024/01/03 06:47:12;;;;;;;3.85;1.20;;;12.20;99.90;;;;;;5049708;28;20200;-63
2024/01/03 06:49:38;;;;;;;5.95;1.20;;;12.30;99.90;;;;;;5035782;28;20189;-63
2024/01/03 06:52:04;;;;;;;4.82;1.20;;;12.30;99.90;;;;;;5033308;28;20255;-63
2024/01/03 06:54:34;;;;;;;5.63;1.45;;;12.40;99.90;;;;;;5038193;28;20264;-63
2024/01/03 06:57:00;;;;;;;7.25;1.40;;;12.30;99.90;;;;;;5035486;28;20197;-63
2024/01/03 06:59:25;;;;;;;5.30;2.05;;;12.40;99.90;;;;;;5036369;28;20199;-63
2024/01/03 07:01:53;;;;;;;6.88;1.38;;;12.40;99.90;;;;;;5036503;28;20193;-64
2024/01/03 07:04:21;;;;;;;3.88;1.23;;;12.40;99.90;;;;;;5034667;28;20182;-63
2024/01/03 07:06:47;;;;;;;4.15;1.10;;;12.40;99.90;;;;;;5034827;28;20226;-63
2024/01/03 07:09:13;;;;;;;4.63;1.20;;;12.40;99.90;;;;;;5032665;28;20165;-63
2024/01/03 07:11:39;;;;;;;4.50;1.40;;;12.40;99.90;;;;;;5033738;28;20250;-64
2024/01/03 07:14:08;;;;;;;3.20;1.10;;;12.40;99.90;;;;;;5036092;28;20220;-64
2024/01/03 07:16:36;;;;;;;2.42;1.10;;;12.40;99.90;;;;;;5172518;22;20242;-64
2024/01/03 07:19:01;;;;;;;3.55;0.95;;;12.40;99.90;;;;;;5063924;28;20200;-63
2024/01/03 07:21:29;;;;;;;4.28;0.90;;;12.30;99.90;;;;;;5054624;28;20177;-63
2024/01/03 07:23:59;;;;;;;4.60;1.23;;;12.40;99.90;;;;;;5055465;28;20223;-63
2024/01/03 07:26:25;;;;;;;2.53;0.80;;;12.40;99.90;;;;;;5072787;28;20180;-64
2024/01/03 07:28:53;;;;;;;3.03;0.90;;;12.40;99.90;;;;;;5056588;28;20185;-64
2024/01/03 07:31:21;;;;;;;2.88;0.98;;;12.40;99.90;;;;;;5054256;28;20215;-64
2024/01/03 07:33:46;;;;;;;3.83;0.90;;;12.40;99.90;;;;;;5047271;28;20196;-63
2024/01/03 07:36:14;;;;;;;2.63;0.90;;;12.40;99.90;;;;;;5055405;28;20192;-63
2024/01/03 07:38:44;;;;;;;2.90;0.93;;;12.40;99.90;;;;;;5049385;28;20200;-64
2024/01/03 07:41:10;;;;;;;5.82;1.10;;;12.40;99.90;;;;;;5059691;28;20176;-64
2024/01/03 07:43:36;;;;;;;2.00;1.02;;;12.40;99.90;;;;;;5055196;28;20215;-63
2024/01/03 07:46:01;;;;;;;5.65;1.23;;;12.50;99.90;;;;;;5055172;28;20173;-63
2024/01/03 07:48:27;;;;;;;2.65;0.93;;;12.40;99.90;;;;;;5057435;28;20230;-63
2024/01/03 07:50:53;;;;;;;2.95;1.00;;;12.50;99.90;;;;;;5052442;28;20180;-64
2024/01/03 07:53:18;;;;;;;5.18;1.10;;;12.40;99.90;;;;;;5054318;28;20181;-63
2024/01/03 07:55:44;;;;;;;2.55;1.10;;;12.40;99.90;;;;;;5056511;28;20258;-63
2024/01/03 07:58:10;;;;;;;3.55;1.05;;;12.40;99.90;;;;;;5053462;28;20200;-63
2024/01/03 08:00:37;;;;;;;4.05;1.10;;;12.40;99.90;;;;;;5075292;28;20188;-63
2024/01/03 08:03:04;;;;;;;3.03;0.95;;;12.40;99.90;;;;;;5055672;28;20196;-64
2024/01/03 08:05:32;;;;;;;2.88;0.90;;;12.50;99.90;;;;;;5052392;28;20310;-63
2024/01/03 08:08:02;;;;;;;2.33;0.90;;;12.50;99.90;;;;;;5053342;28;20195;-64
2024/01/03 08:10:30;;;;;;;2.45;0.90;;;12.40;99.90;;;;;;5058653;28;20180;-64
2024/01/03 08:13:00;;;;;;;4.25;1.33;;;12.50;99.90;;;;;;5053936;28;20184;-64
2024/01/03 08:15:26;;;;;;;3.95;1.10;;;12.40;99.90;;;;;;5049397;28;20209;-64
2024/01/03 08:17:51;;;;;;;3.47;1.20;;;12.30;99.90;;;;;;5052047;28;20211;-64
2024/01/03 08:20:19;;;;;;;4.32;1.00;;;12.30;99.90;;;;;;5044241;28;20173;-64
2024/01/03 08:22:46;;;;;;;3.08;0.73;;;12.30;99.90;;;;;;5049339;28;20212;-63
2024/01/03 08:25:12;;;;;;;3.22;1.00;;;12.20;99.90;;;;;;5077377;28;20173;-65
2024/01/03 08:27:39;;;;;;;2.90;0.90;;;12.20;99.90;;;;;;5062881;28;20173;-64
2024/01/03 08:30:05;;;;;;;2.25;0.82;;;12.30;99.90;;;;;;5058337;28;20219;-64
2024/01/03 08:32:36;;;;;;;2.13;0.70;;;12.20;99.90;;;;;;5078188;28;20185;-64
2024/01/03 08:35:03;;;;;;;4.65;0.93;;;12.30;99.90;;;;;;5064524;28;20196;-65
2024/01/03 08:37:31;;;;;;;3.70;1.00;;;12.30;99.90;;;;;;5061231;28;20193;-64
2024/01/03 08:39:59;;;;;;;2.13;0.75;;;12.30;99.90;;;;;;5040600;28;20302;-64
2024/01/03 08:42:27;;;;;;;3.63;1.02;;;12.30;99.90;;;;;;5041568;28;20188;-64
2024/01/03 08:44:52;;;;;;;2.15;0.90;;;12.30;99.90;;;;;;5040765;28;20181;-64
2024/01/03 08:47:18;;;;;;;2.35;0.70;;;12.20;99.90;;;;;;5052707;28;20232;-68
2024/01/03 08:49:45;;;;;;;4.03;0.93;;;12.20;99.90;;;;;;5056701;28;20177;-68
2024/01/03 08:52:11;;;;;;;4.75;1.00;;;12.20;99.90;;;;;;5040643;28;20174;-68
2024/01/03 08:54:37;;;;;;;3.03;0.70;;;12.20;99.90;;;;;;5059535;28;20172;-67
2024/01/03 08:57:03;;;;;;;2.67;0.80;;;12.40;99.90;;;;;;5056303;28;20216;-64
2024/01/03 08:59:31;;;;;;;3.88;1.10;;;12.30;99.90;;;;;;5057912;28;20295;-65
2024/01/03 09:01:57;;;;;;;1.65;0.80;;;12.30;99.90;;;;;;5068597;28;20180;-64
2024/01/03 09:04:23;;;;;;;5.15;0.82;;;12.30;99.90;;;;;;5080219;28;20187;-64
2024/01/03 09:06:52;;;;;;;2.90;0.82;;;12.40;99.90;;;;;;5060566;28;20197;-64
2024/01/03 09:09:18;;;;;;;4.60;1.50;;;12.50;99.90;;;;;;5056792;28;20180;-64
2024/01/03 09:11:46;;;;;;;4.90;1.13;;;12.50;99.90;;;;;;5080076;28;20172;-64
2024/01/03 09:14:13;;;;;;;7.45;1.27;;;12.60;99.90;;;;;;5063324;28;20177;-66
2024/01/03 09:16:46;;;;;;;5.00;1.10;;;12.70;99.90;;;;;;5039865;28;20273;-64
2024/01/03 09:19:11;;;;;;;2.88;1.00;;;12.90;99.90;;;;;;5040122;28;20205;-64
2024/01/03 09:21:46;;;;;;;5.18;0.93;;;13.00;99.90;;;;;;5044925;28;20192;-64
2024/01/03 09:24:12;;;;;;;5.28;1.20;;;13.20;99.90;;;;;;5063997;28;20175;-65
2024/01/03 09:26:38;;;;;;;3.55;1.13;;;13.30;99.90;;;;;;5079892;28;20168;-64
2024/01/03 09:29:05;;;;;;;4.78;1.10;;;13.50;99.90;;;;;;5071519;28;20180;-64
2024/01/03 09:31:33;;;;;;;2.53;1.10;;;13.60;99.90;;;;;;5075173;28;20197;-64
2024/01/03 09:33:59;;;;;;;5.28;1.40;;;13.80;99.90;;;;;;5079811;28;20289;-65
2024/01/03 09:36:27;;;;;;;2.10;0.90;;;13.80;99.90;;;;;;5065042;28;20182;-64
2024/01/03 09:38:53;;;;;;;5.20;1.48;;;13.90;99.90;;;;;;5039398;28;20416;-64
2024/01/03 09:41:21;;;;;;;7.72;1.27;;;14.00;99.90;;;;;;5055171;28;20538;-65
2024/01/03 09:43:48;;;;;;;6.15;1.38;;;14.00;99.90;;;;;;5061004;28;20345;-64
2024/01/03 09:46:15;;;;;;;4.03;1.13;;;13.90;99.90;;;;;;5079406;28;20263;-64
2024/01/03 09:48:42;;;;;;;6.57;1.40;;;13.90;99.90;;;;;;5064152;28;20193;-64
2024/01/03 09:51:13;;;;;;;6.03;1.42;;;13.90;99.90;;;;;;5039055;28;20327;-65
2024/01/03 09:53:40;;;;;;;4.93;1.30;;;13.80;99.90;;;;;;5054450;28;20276;-64
2024/01/03 09:56:08;;;;;;;6.13;1.55;;;13.80;99.90;;;;;;5063801;28;20172;-64
2024/01/03 09:58:37;;;;;;;4.78;1.45;;;13.90;99.90;;;;;;5078909;28;20215;-65
2024/01/03 10:01:03;;;;;;;4.80;1.55;;;13.80;99.90;;;;;;5075271;28;20271;-65
2024/01/03 10:03:31;;;;;;;5.43;1.38;;;13.90;99.90;;;;;;5073531;28;20260;-65
2024/01/03 10:06:13;;;;;;;4.10;1.25;;;13.90;99.90;;;;;;5079006;28;20172;-66
2024/01/03 10:08:39;;;;;;;6.93;1.80;;;14.00;99.90;;;;;;5075319;28;20184;-65
2024/01/03 10:11:20;;;;;;;6.40;2.03;;;14.00;99.90;;;;;;5073491;28;20299;-64
2024/01/03 10:13:51;;;;;;;8.18;1.88;;;14.10;99.90;;;;;;5042336;28;20191;-65
2024/01/03 10:16:27;;;;;;;5.30;1.77;;;14.10;99.90;;;;;;5074792;28;20173;-63
2024/01/03 10:19:13;;;;;;;5.85;1.40;;;14.20;99.90;;;;;;5060060;28;20239;-64
2024/01/03 10:21:55;;;;;;;6.07;1.58;;;14.30;99.90;;;;;;5075870;28;20259;-63
2024/01/03 10:24:25;;;;;;;5.82;1.50;;;14.40;99.90;;;;;;5041511;28;20267;-64
2024/01/03 10:26:56;;;;;;;7.60;1.55;;;14.50;99.90;;;;;;5056335;28;20173;-64
2024/01/03 10:29:22;;;;;;;5.70;1.60;;;14.50;99.90;;;;;;5048719;28;20244;-64
2024/01/03 10:31:51;;;;;;;7.88;1.60;;;14.60;99.90;;;;;;5064993;28;20283;-63
2024/01/03 10:34:27;;;;;;;6.20;1.40;;;14.60;99.90;;;;;;5072412;28;20180;-64
2024/01/03 10:36:53;;;;;;;3.85;1.30;;;14.60;99.90;;;;;;5061943;28;20251;-65
2024/01/03 10:39:22;;;;;;;4.75;1.55;;;14.60;99.90;;;;;;5058434;28;20177;-64
2024/01/03 10:41:49;;;;;;;5.53;1.30;;;14.60;99.90;;;;;;5069041;28;20195;-64
2024/01/03 10:44:19;;;;;;;4.40;1.35;;;14.60;99.90;;;;;;5047100;28;20207;-64
2024/01/03 10:46:48;;;;;;;4.80;1.38;;;14.60;99.90;;;;;;5045752;28;20176;-64
2024/01/03 10:49:15;;;;;;;5.00;1.23;;;14.60;99.90;;;;;;5059791;28;20199;-64
2024/01/03 10:51:45;;;;;;;5.18;1.60;;;14.60;99.90;;;;;;5078101;28;20227;-64
2024/01/03 10:54:12;;;;;;;8.55;1.48;;;14.70;99.90;;;;;;5049447;28;20185;-64
2024/01/03 10:56:47;;;;;;;3.90;1.15;;;14.60;99.90;;;;;;5045995;28;20190;-64
2024/01/03 10:59:13;;;;;;;4.75;1.45;;;14.60;99.90;;;;;;5078060;28;20174;-65
2024/01/03 11:02:17;;;;;;;5.15;1.20;;;14.60;99.90;;;;;;5059495;28;20295;-65
2024/01/03 11:05:06;;;;;;;6.03;1.35;;;14.60;99.90;;;;;;5065448;28;20212;-64
2024/01/03 11:07:46;;;;;;;6.03;1.30;;;14.70;99.90;;;;;;5072128;28;20176;-64
2024/01/03 11:10:52;;;;;;;4.13;1.38;;;14.60;99.90;;;;;;5054734;28;20205;-64
2024/01/03 11:13:30;;;;;;;3.42;1.10;;;14.60;99.90;;;;;;5055780;28;20410;-63
2024/01/03 11:15:58;;;;;;;5.47;1.40;;;14.60;99.90;;;;;;5057188;28;20208;-63
2024/01/03 11:18:42;;;;;;;3.78;1.10;;;14.50;99.90;;;;;;5056509;28;20281;-64
2024/01/03 11:21:31;;;;;;;3.22;0.95;;;14.50;99.90;;;;;;5040655;28;20237;-63
2024/01/03 11:23:58;;;;;;;3.38;1.38;;;14.40;99.90;;;;;;5065899;28;20192;-63
2024/01/03 11:26:58;;;;;;;4.82;1.60;;;14.40;99.90;;;;;;5061659;28;20184;-63
2024/01/03 11:29:38;;;;;;;6.97;1.50;;;14.40;99.90;;;;;;5036602;28;20181;-63
2024/01/03 11:32:12;;;;;;;3.47;1.33;;;14.30;99.90;;;;;;5036646;28;20485;-63
2024/01/03 11:34:44;;;;;;;4.43;1.33;;;14.40;99.90;;;;;;5062316;28;20168;-65
2024/01/03 11:37:21;;;;;;;3.05;1.20;;;14.50;99.90;;;;;;5054596;28;20265;-65
2024/01/03 11:39:50;;;;;;;4.40;1.13;;;14.60;99.90;;;;;;5056555;28;20176;-65
2024/01/03 11:42:19;;;;;;;5.10;1.30;;;14.80;99.90;;;;;;5056894;28;20179;-67
2024/01/03 11:44:45;;;;;;;6.03;1.33;;;15.00;99.90;;;;;;5056069;28;20180;-64
2024/01/03 11:47:13;;;;;;;5.55;1.50;;;15.00;99.90;;;;;;5056291;28;20180;-64
2024/01/03 11:49:39;;;;;;;4.30;1.58;;;15.10;99.90;;;;;;5065433;28;20196;-65
2024/01/03 11:52:05;;;;;;;3.35;1.17;;;15.00;99.90;;;;;;5076344;28;20264;-65
2024/01/03 11:54:32;;;;;;;5.03;1.20;;;15.00;99.90;;;;;;5055496;28;20307;-64
2024/01/03 11:56:58;;;;;;;4.18;1.15;;;14.90;99.90;;;;;;5058433;28;20173;-64
2024/01/03 11:59:33;;;;;;;4.43;1.27;;;14.80;99.90;;;;;;5059650;28;20424;-67
2024/01/03 12:01:59;;;;;;;5.63;2.40;;;14.70;99.90;;;;;;5068837;28;20206;-67
2024/01/03 12:04:26;;;;;;;7.80;2.38;;;14.80;99.90;;;;;;5062885;28;20180;-64
2024/01/03 12:07:02;;;;;;;5.13;1.60;;;14.80;99.90;;;;;;5061360;28;20177;-64
2024/01/03 12:09:32;;;;;;;5.97;1.80;;;15.00;99.90;;;;;;5062263;28;20172;-65
2024/01/03 12:11:57;;;;;;;6.43;1.85;;;15.10;99.90;;;;;;5053426;28;20161;-64
2024/01/03 12:14:25;;;;;;;7.43;1.63;;;15.30;99.90;;;;;;5073457;28;20215;-64
2024/01/03 12:16:53;;;;;;;5.80;1.63;;;15.50;99.90;;;;;;5020547;28;1137618;-65
2024/01/03 12:19:26;;;;;;;7.40;1.58;;;15.60;99.90;;;;;;5060286;28;20354;-64
2024/01/03 12:21:59;;;;;;;4.25;1.27;;;15.80;99.90;;;;;;5058070;28;20267;-64
2024/01/03 12:24:41;;;;;;;4.72;1.33;;;15.90;99.90;;;;;;5058306;28;20439;-65
2024/01/03 12:27:10;;;;;;;6.93;1.65;;;16.00;99.90;;;;;;5063883;28;20291;-65
2024/01/03 12:29:41;;;;;;;5.78;1.55;;;16.00;99.90;;;;;;5057574;28;20175;-64
2024/01/03 12:32:13;;;;;;;4.55;1.58;;;15.80;99.90;;;;;;5059162;28;20222;-66
2024/01/03 12:34:39;;;;;;;6.90;1.50;;;15.70;99.90;;;;;;5059918;28;20207;-64
2024/01/03 12:37:05;;;;;;;4.55;1.20;;;15.60;99.90;;;;;;5057108;28;20188;-63
2024/01/03 12:39:37;;;;;;;4.15;1.48;;;15.40;99.90;;;;;;5059269;28;20201;-65
2024/01/03 12:42:09;;;;;;;4.03;1.58;;;15.40;99.90;;;;;;5055065;28;20177;-63
2024/01/03 12:44:42;;;;;;;3.08;1.13;;;15.30;99.90;;;;;;5057779;28;20265;-64
2024/01/03 12:47:11;;;;;;;5.55;2.30;;;15.30;99.90;;;;;;5057699;28;20188;-66
2024/01/03 12:49:40;;;;;;;8.18;2.28;;;15.20;99.90;;;;;;5042702;28;20200;-66
2024/01/03 12:52:10;;;;;;;4.50;1.40;;;15.10;99.90;;;;;;5070835;28;20233;-65
2024/01/03 12:54:38;;;;;;;4.30;1.60;;;15.10;99.90;;;;;;5053101;28;20173;-64
2024/01/03 12:57:06;;;;;;;4.00;1.48;;;15.00;99.90;;;;;;5061050;28;20181;-64